sensor_id;sensor_type;location;lat;lon;timestamp;P1;durP1;ratioP1;P2;durP2;ratioP2
34282;SDS011;20542;49.828;8.746;2022-08-19T00:01:26;17.83;;;10.20;;
34282;SDS011;20542;49.828;8.746;2022-08-19T00:03:54;13.25;;;10.10;;
34282;SDS011;20542;49.828;8.746;2022-08-19T00:06:20;17.90;;;11.40;;
34282;SDS011;20542;49.828;8.746;2022-08-19T00:08:46;16.65;;;11.88;;
34282;SDS011;20542;49.828;8.746;2022-08-19T00:11:11;19.77;;;11.65;;
34282;SDS011;20542;49.828;8.746;2022-08-19T00:13:38;17.48;;;11.57;;
34282;SDS011;20542;49.828;8.746;2022-08-19T00:16:05;13.45;;;9.73;;
34282;SDS011;20542;49.828;8.746;2022-08-19T00:18:31;16.55;;;11.38;;
34282;SDS011;20542;49.828;8.746;2022-08-19T00:20:58;13.93;;;10.57;;
34282;SDS011;20542;49.828;8.746;2022-08-19T00:23:24;16.30;;;11.30;;
34282;SDS011;20542;49.828;8.746;2022-08-19T00:25:51;14.50;;;10.68;;
34282;SDS011;20542;49.828;8.746;2022-08-19T00:28:17;18.85;;;11.95;;
34282;SDS011;20542;49.828;8.746;2022-08-19T00:30:43;15.07;;;11.00;;
34282;SDS011;20542;49.828;8.746;2022-08-19T00:33:08;16.52;;;11.20;;
34282;SDS011;20542;49.828;8.746;2022-08-19T00:35:34;18.75;;;11.50;;
34282;SDS011;20542;49.828;8.746;2022-08-19T00:38:00;17.67;;;11.52;;
34282;SDS011;20542;49.828;8.746;2022-08-19T00:40:25;18.23;;;11.93;;
34282;SDS011;20542;49.828;8.746;2022-08-19T00:42:51;18.20;;;11.90;;
34282;SDS011;20542;49.828;8.746;2022-08-19T00:45:23;21.30;;;12.65;;
34282;SDS011;20542;49.828;8.746;2022-08-19T00:47:50;20.45;;;12.18;;
34282;SDS011;20542;49.828;8.746;2022-08-19T00:50:17;18.50;;;11.23;;
34282;SDS011;20542;49.828;8.746;2022-08-19T00:52:45;18.30;;;11.27;;
34282;SDS011;20542;49.828;8.746;2022-08-19T00:55:15;18.17;;;11.68;;
34282;SDS011;20542;49.828;8.746;2022-08-19T00:57:48;20.23;;;12.10;;
34282;SDS011;20542;49.828;8.746;2022-08-19T01:00:19;19.92;;;12.30;;
34282;SDS011;20542;49.828;8.746;2022-08-19T01:02:45;19.57;;;11.70;;
34282;SDS011;20542;49.828;8.746;2022-08-19T01:05:13;20.42;;;11.38;;
34282;SDS011;20542;49.828;8.746;2022-08-19T01:07:43;20.15;;;12.43;;
34282;SDS011;20542;49.828;8.746;2022-08-19T01:10:11;17.50;;;12.25;;
34282;SDS011;20542;49.828;8.746;2022-08-19T01:12:39;20.42;;;11.95;;
34282;SDS011;20542;49.828;8.746;2022-08-19T01:15:06;16.88;;;10.77;;
34282;SDS011;20542;49.828;8.746;2022-08-19T01:17:33;18.88;;;12.13;;
34282;SDS011;20542;49.828;8.746;2022-08-19T01:20:01;19.70;;;12.10;;
34282;SDS011;20542;49.828;8.746;2022-08-19T01:22:34;16.70;;;10.98;;
34282;SDS011;20542;49.828;8.746;2022-08-19T01:25:05;18.38;;;11.18;;
34282;SDS011;20542;49.828;8.746;2022-08-19T01:27:39;17.02;;;11.20;;
34282;SDS011;20542;49.828;8.746;2022-08-19T01:30:06;21.35;;;12.10;;
34282;SDS011;20542;49.828;8.746;2022-08-19T01:32:32;18.55;;;11.82;;
34282;SDS011;20542;49.828;8.746;2022-08-19T01:34:58;23.98;;;12.52;;
34282;SDS011;20542;49.828;8.746;2022-08-19T01:37:26;18.50;;;11.90;;
34282;SDS011;20542;49.828;8.746;2022-08-19T01:39:52;19.10;;;11.90;;
34282;SDS011;20542;49.828;8.746;2022-08-19T01:42:18;18.48;;;11.73;;
34282;SDS011;20542;49.828;8.746;2022-08-19T01:44:44;20.73;;;10.75;;
34282;SDS011;20542;49.828;8.746;2022-08-19T01:47:10;18.23;;;12.25;;
34282;SDS011;20542;49.828;8.746;2022-08-19T01:49:36;26.85;;;11.98;;
34282;SDS011;20542;49.828;8.746;2022-08-19T01:52:02;19.03;;;11.60;;
34282;SDS011;20542;49.828;8.746;2022-08-19T01:54:28;18.35;;;10.27;;
34282;SDS011;20542;49.828;8.746;2022-08-19T01:57:05;19.52;;;12.27;;
34282;SDS011;20542;49.828;8.746;2022-08-19T01:59:33;18.23;;;11.38;;
34282;SDS011;20542;49.828;8.746;2022-08-19T02:02:01;18.45;;;11.02;;
34282;SDS011;20542;49.828;8.746;2022-08-19T02:04:29;16.98;;;11.07;;
34282;SDS011;20542;49.828;8.746;2022-08-19T02:06:54;15.55;;;10.70;;
34282;SDS011;20542;49.828;8.746;2022-08-19T02:09:20;18.42;;;11.05;;
34282;SDS011;20542;49.828;8.746;2022-08-19T02:11:45;18.52;;;10.50;;
34282;SDS011;20542;49.828;8.746;2022-08-19T02:14:11;20.63;;;11.32;;
34282;SDS011;20542;49.828;8.746;2022-08-19T02:16:38;16.92;;;10.48;;
34282;SDS011;20542;49.828;8.746;2022-08-19T02:19:05;15.90;;;10.50;;
34282;SDS011;20542;49.828;8.746;2022-08-19T02:21:30;18.00;;;10.55;;
34282;SDS011;20542;49.828;8.746;2022-08-19T02:23:57;18.23;;;11.13;;
34282;SDS011;20542;49.828;8.746;2022-08-19T02:26:23;15.15;;;10.38;;
34282;SDS011;20542;49.828;8.746;2022-08-19T02:28:48;19.02;;;11.13;;
34282;SDS011;20542;49.828;8.746;2022-08-19T02:31:16;16.02;;;10.07;;
34282;SDS011;20542;49.828;8.746;2022-08-19T02:33:43;17.10;;;10.43;;
34282;SDS011;20542;49.828;8.746;2022-08-19T02:36:10;22.73;;;10.57;;
34282;SDS011;20542;49.828;8.746;2022-08-19T02:41:03;16.87;;;11.13;;
34282;SDS011;20542;49.828;8.746;2022-08-19T02:43:33;22.55;;;10.57;;
34282;SDS011;20542;49.828;8.746;2022-08-19T02:46:10;16.42;;;10.32;;
34282;SDS011;20542;49.828;8.746;2022-08-19T02:48:38;14.93;;;9.70;;
34282;SDS011;20542;49.828;8.746;2022-08-19T02:51:04;15.23;;;10.02;;
34282;SDS011;20542;49.828;8.746;2022-08-19T02:53:30;19.58;;;10.98;;
34282;SDS011;20542;49.828;8.746;2022-08-19T02:55:56;21.38;;;10.82;;
34282;SDS011;20542;49.828;8.746;2022-08-19T02:58:22;16.20;;;10.13;;
34282;SDS011;20542;49.828;8.746;2022-08-19T03:00:50;17.20;;;9.85;;
34282;SDS011;20542;49.828;8.746;2022-08-19T03:03:19;14.52;;;9.63;;
34282;SDS011;20542;49.828;8.746;2022-08-19T03:05:45;14.88;;;9.27;;
34282;SDS011;20542;49.828;8.746;2022-08-19T03:08:11;17.23;;;10.67;;
34282;SDS011;20542;49.828;8.746;2022-08-19T03:10:41;17.38;;;10.32;;
34282;SDS011;20542;49.828;8.746;2022-08-19T03:13:09;18.77;;;9.98;;
34282;SDS011;20542;49.828;8.746;2022-08-19T03:15:40;17.52;;;10.90;;
34282;SDS011;20542;49.828;8.746;2022-08-19T03:18:07;18.50;;;10.70;;
34282;SDS011;20542;49.828;8.746;2022-08-19T03:20:33;17.85;;;11.23;;
34282;SDS011;20542;49.828;8.746;2022-08-19T03:22:59;15.18;;;9.70;;
34282;SDS011;20542;49.828;8.746;2022-08-19T03:25:24;15.57;;;10.15;;
34282;SDS011;20542;49.828;8.746;2022-08-19T03:27:50;18.20;;;11.25;;
34282;SDS011;20542;49.828;8.746;2022-08-19T03:30:15;16.55;;;10.60;;
34282;SDS011;20542;49.828;8.746;2022-08-19T03:32:41;16.35;;;10.38;;
34282;SDS011;20542;49.828;8.746;2022-08-19T03:35:07;17.07;;;10.27;;
34282;SDS011;20542;49.828;8.746;2022-08-19T03:37:33;14.15;;;10.13;;
34282;SDS011;20542;49.828;8.746;2022-08-19T03:39:59;17.98;;;11.32;;
34282;SDS011;20542;49.828;8.746;2022-08-19T03:42:26;17.05;;;10.57;;
34282;SDS011;20542;49.828;8.746;2022-08-19T03:44:51;19.15;;;10.43;;
34282;SDS011;20542;49.828;8.746;2022-08-19T03:47:17;15.95;;;10.27;;
34282;SDS011;20542;49.828;8.746;2022-08-19T03:49:43;20.25;;;11.30;;
34282;SDS011;20542;49.828;8.746;2022-08-19T03:52:09;22.08;;;11.52;;
34282;SDS011;20542;49.828;8.746;2022-08-19T03:54:35;16.27;;;10.60;;
34282;SDS011;20542;49.828;8.746;2022-08-19T03:57:02;17.92;;;10.82;;
34282;SDS011;20542;49.828;8.746;2022-08-19T03:59:29;16.85;;;10.45;;
34282;SDS011;20542;49.828;8.746;2022-08-19T04:01:57;19.42;;;10.55;;
34282;SDS011;20542;49.828;8.746;2022-08-19T04:04:24;15.90;;;10.30;;
34282;SDS011;20542;49.828;8.746;2022-08-19T04:06:51;15.82;;;9.90;;
34282;SDS011;20542;49.828;8.746;2022-08-19T04:09:17;19.63;;;10.20;;
34282;SDS011;20542;49.828;8.746;2022-08-19T04:11:46;16.73;;;10.45;;
34282;SDS011;20542;49.828;8.746;2022-08-19T04:14:20;16.33;;;10.65;;
34282;SDS011;20542;49.828;8.746;2022-08-19T04:16:49;16.83;;;11.23;;
34282;SDS011;20542;49.828;8.746;2022-08-19T04:19:15;17.73;;;10.70;;
34282;SDS011;20542;49.828;8.746;2022-08-19T04:21:52;16.35;;;10.50;;
34282;SDS011;20542;49.828;8.746;2022-08-19T04:24:19;17.98;;;11.00;;
34282;SDS011;20542;49.828;8.746;2022-08-19T04:26:45;14.23;;;9.73;;
34282;SDS011;20542;49.828;8.746;2022-08-19T04:29:13;17.92;;;11.80;;
34282;SDS011;20542;49.828;8.746;2022-08-19T04:31:42;19.58;;;11.82;;
34282;SDS011;20542;49.828;8.746;2022-08-19T04:34:09;18.63;;;10.95;;
34282;SDS011;20542;49.828;8.746;2022-08-19T04:36:36;19.90;;;11.68;;
34282;SDS011;20542;49.828;8.746;2022-08-19T04:39:05;16.83;;;10.90;;
34282;SDS011;20542;49.828;8.746;2022-08-19T04:41:33;16.00;;;10.20;;
34282;SDS011;20542;49.828;8.746;2022-08-19T04:44:17;14.80;;;9.68;;
34282;SDS011;20542;49.828;8.746;2022-08-19T04:46:43;14.52;;;9.70;;
34282;SDS011;20542;49.828;8.746;2022-08-19T04:49:13;17.63;;;11.00;;
34282;SDS011;20542;49.828;8.746;2022-08-19T04:51:42;17.05;;;10.07;;
34282;SDS011;20542;49.828;8.746;2022-08-19T04:54:09;13.40;;;9.85;;
34282;SDS011;20542;49.828;8.746;2022-08-19T04:56:34;16.50;;;10.88;;
34282;SDS011;20542;49.828;8.746;2022-08-19T04:59:00;18.60;;;10.90;;
34282;SDS011;20542;49.828;8.746;2022-08-19T05:01:29;15.70;;;10.15;;
34282;SDS011;20542;49.828;8.746;2022-08-19T05:04:00;14.48;;;9.82;;
34282;SDS011;20542;49.828;8.746;2022-08-19T05:06:28;20.45;;;10.30;;
34282;SDS011;20542;49.828;8.746;2022-08-19T05:08:54;16.35;;;10.27;;
34282;SDS011;20542;49.828;8.746;2022-08-19T05:11:22;15.20;;;10.35;;
34282;SDS011;20542;49.828;8.746;2022-08-19T05:13:50;14.63;;;9.88;;
34282;SDS011;20542;49.828;8.746;2022-08-19T05:16:18;20.92;;;11.93;;
34282;SDS011;20542;49.828;8.746;2022-08-19T05:18:44;15.57;;;10.00;;
34282;SDS011;20542;49.828;8.746;2022-08-19T05:21:29;17.25;;;10.32;;
34282;SDS011;20542;49.828;8.746;2022-08-19T05:24:14;17.83;;;11.13;;
34282;SDS011;20542;49.828;8.746;2022-08-19T05:29:11;14.32;;;9.43;;
34282;SDS011;20542;49.828;8.746;2022-08-19T05:31:37;14.65;;;9.85;;
34282;SDS011;20542;49.828;8.746;2022-08-19T05:34:03;17.98;;;10.50;;
34282;SDS011;20542;49.828;8.746;2022-08-19T05:36:33;17.23;;;11.20;;
34282;SDS011;20542;49.828;8.746;2022-08-19T05:39:00;16.20;;;9.68;;
34282;SDS011;20542;49.828;8.746;2022-08-19T05:41:26;14.43;;;9.50;;
34282;SDS011;20542;49.828;8.746;2022-08-19T05:44:00;15.15;;;9.63;;
34282;SDS011;20542;49.828;8.746;2022-08-19T05:46:30;14.93;;;9.90;;
34282;SDS011;20542;49.828;8.746;2022-08-19T05:48:57;15.88;;;10.07;;
34282;SDS011;20542;49.828;8.746;2022-08-19T05:51:24;16.77;;;10.57;;
34282;SDS011;20542;49.828;8.746;2022-08-19T05:53:50;14.82;;;9.75;;
34282;SDS011;20542;49.828;8.746;2022-08-19T05:56:16;15.73;;;9.43;;
34282;SDS011;20542;49.828;8.746;2022-08-19T05:58:43;18.10;;;11.35;;
34282;SDS011;20542;49.828;8.746;2022-08-19T06:01:14;19.17;;;11.48;;
34282;SDS011;20542;49.828;8.746;2022-08-19T06:03:41;13.85;;;9.75;;
34282;SDS011;20542;49.828;8.746;2022-08-19T06:06:08;16.45;;;8.98;;
34282;SDS011;20542;49.828;8.746;2022-08-19T06:08:35;15.30;;;9.90;;
34282;SDS011;20542;49.828;8.746;2022-08-19T06:14:03;14.85;;;9.38;;
34282;SDS011;20542;49.828;8.746;2022-08-19T06:16:37;13.65;;;8.85;;
34282;SDS011;20542;49.828;8.746;2022-08-19T06:19:05;17.92;;;10.52;;
34282;SDS011;20542;49.828;8.746;2022-08-19T06:21:33;18.67;;;9.35;;
34282;SDS011;20542;49.828;8.746;2022-08-19T06:24:02;13.77;;;8.82;;
34282;SDS011;20542;49.828;8.746;2022-08-19T06:26:29;15.18;;;10.27;;
34282;SDS011;20542;49.828;8.746;2022-08-19T06:28:55;15.65;;;10.13;;
34282;SDS011;20542;49.828;8.746;2022-08-19T06:31:23;13.05;;;9.25;;
34282;SDS011;20542;49.828;8.746;2022-08-19T06:33:51;14.68;;;8.88;;
34282;SDS011;20542;49.828;8.746;2022-08-19T06:36:21;14.98;;;9.13;;
34282;SDS011;20542;49.828;8.746;2022-08-19T06:38:52;14.55;;;9.20;;
34282;SDS011;20542;49.828;8.746;2022-08-19T06:41:19;13.23;;;9.10;;
34282;SDS011;20542;49.828;8.746;2022-08-19T06:43:45;15.27;;;9.32;;
34282;SDS011;20542;49.828;8.746;2022-08-19T06:46:14;17.02;;;8.70;;
34282;SDS011;20542;49.828;8.746;2022-08-19T06:48:42;14.63;;;8.95;;
34282;SDS011;20542;49.828;8.746;2022-08-19T06:51:08;17.23;;;9.80;;
34282;SDS011;20542;49.828;8.746;2022-08-19T06:53:34;17.52;;;9.18;;
34282;SDS011;20542;49.828;8.746;2022-08-19T06:55:59;13.27;;;9.23;;
34282;SDS011;20542;49.828;8.746;2022-08-19T06:58:28;15.98;;;9.82;;
34282;SDS011;20542;49.828;8.746;2022-08-19T07:00:57;14.75;;;9.98;;
34282;SDS011;20542;49.828;8.746;2022-08-19T07:03:30;16.70;;;9.52;;
34282;SDS011;20542;49.828;8.746;2022-08-19T07:05:58;14.40;;;9.15;;
34282;SDS011;20542;49.828;8.746;2022-08-19T07:08:28;17.02;;;10.35;;
34282;SDS011;20542;49.828;8.746;2022-08-19T07:10:54;13.10;;;9.65;;
34282;SDS011;20542;49.828;8.746;2022-08-19T07:13:20;12.70;;;9.27;;
34282;SDS011;20542;49.828;8.746;2022-08-19T07:15:46;18.90;;;8.70;;
34282;SDS011;20542;49.828;8.746;2022-08-19T07:18:14;14.70;;;9.38;;
34282;SDS011;20542;49.828;8.746;2022-08-19T07:20:39;15.85;;;8.75;;
34282;SDS011;20542;49.828;8.746;2022-08-19T07:23:06;14.18;;;8.20;;
34282;SDS011;20542;49.828;8.746;2022-08-19T07:25:32;14.77;;;8.70;;
34282;SDS011;20542;49.828;8.746;2022-08-19T07:27:57;14.23;;;8.60;;
34282;SDS011;20542;49.828;8.746;2022-08-19T07:30:23;14.15;;;8.50;;
34282;SDS011;20542;49.828;8.746;2022-08-19T07:32:49;13.60;;;7.90;;
34282;SDS011;20542;49.828;8.746;2022-08-19T07:35:16;10.40;;;7.10;;
34282;SDS011;20542;49.828;8.746;2022-08-19T07:37:44;14.95;;;7.50;;
34282;SDS011;20542;49.828;8.746;2022-08-19T07:40:10;11.50;;;7.63;;
34282;SDS011;20542;49.828;8.746;2022-08-19T07:42:36;10.07;;;7.33;;
34282;SDS011;20542;49.828;8.746;2022-08-19T07:45:02;11.90;;;7.60;;
34282;SDS011;20542;49.828;8.746;2022-08-19T07:49:54;11.33;;;7.10;;
34282;SDS011;20542;49.828;8.746;2022-08-19T07:52:21;8.68;;;6.38;;
34282;SDS011;20542;49.828;8.746;2022-08-19T07:54:47;10.90;;;6.72;;
34282;SDS011;20542;49.828;8.746;2022-08-19T07:57:13;12.55;;;7.95;;
34282;SDS011;20542;49.828;8.746;2022-08-19T07:59:38;12.13;;;7.25;;
34282;SDS011;20542;49.828;8.746;2022-08-19T08:02:05;10.60;;;6.40;;
34282;SDS011;20542;49.828;8.746;2022-08-19T08:04:31;18.00;;;6.33;;
34282;SDS011;20542;49.828;8.746;2022-08-19T08:07:15;12.07;;;6.32;;
34282;SDS011;20542;49.828;8.746;2022-08-19T08:09:59;11.55;;;5.97;;
34282;SDS011;20542;49.828;8.746;2022-08-19T08:12:27;9.10;;;6.30;;
34282;SDS011;20542;49.828;8.746;2022-08-19T08:14:56;9.18;;;6.00;;
34282;SDS011;20542;49.828;8.746;2022-08-19T08:17:27;9.82;;;6.15;;
34282;SDS011;20542;49.828;8.746;2022-08-19T08:19:53;10.95;;;6.40;;
34282;SDS011;20542;49.828;8.746;2022-08-19T08:22:20;10.55;;;5.55;;
34282;SDS011;20542;49.828;8.746;2022-08-19T08:25:07;10.20;;;5.75;;
34282;SDS011;20542;49.828;8.746;2022-08-19T08:27:42;9.20;;;5.45;;
34282;SDS011;20542;49.828;8.746;2022-08-19T08:30:09;8.68;;;5.90;;
34282;SDS011;20542;49.828;8.746;2022-08-19T08:32:38;8.98;;;6.00;;
34282;SDS011;20542;49.828;8.746;2022-08-19T08:35:04;9.98;;;5.47;;
34282;SDS011;20542;49.828;8.746;2022-08-19T08:37:32;12.30;;;5.30;;
34282;SDS011;20542;49.828;8.746;2022-08-19T08:39:58;7.18;;;4.97;;
34282;SDS011;20542;49.828;8.746;2022-08-19T08:42:26;9.77;;;5.28;;
34282;SDS011;20542;49.828;8.746;2022-08-19T08:45:08;10.30;;;5.72;;
34282;SDS011;20542;49.828;8.746;2022-08-19T08:47:44;9.38;;;5.05;;
34282;SDS011;20542;49.828;8.746;2022-08-19T08:50:15;7.03;;;4.85;;
34282;SDS011;20542;49.828;8.746;2022-08-19T08:52:45;8.20;;;5.30;;
34282;SDS011;20542;49.828;8.746;2022-08-19T08:55:15;8.02;;;4.43;;
34282;SDS011;20542;49.828;8.746;2022-08-19T09:00:19;7.20;;;4.30;;
34282;SDS011;20542;49.828;8.746;2022-08-19T09:03:06;5.90;;;3.42;;
34282;SDS011;20542;49.828;8.746;2022-08-19T09:05:44;4.43;;;3.63;;
34282;SDS011;20542;49.828;8.746;2022-08-19T09:08:40;5.75;;;3.20;;
34282;SDS011;20542;49.828;8.746;2022-08-19T09:11:18;8.88;;;4.72;;
34282;SDS011;20542;49.828;8.746;2022-08-19T09:16:40;4.93;;;3.65;;
34282;SDS011;20542;49.828;8.746;2022-08-19T09:19:07;6.47;;;3.90;;
34282;SDS011;20542;49.828;8.746;2022-08-19T09:21:33;6.18;;;3.63;;
34282;SDS011;20542;49.828;8.746;2022-08-19T09:24:00;4.07;;;3.40;;
34282;SDS011;20542;49.828;8.746;2022-08-19T09:28:52;5.43;;;3.60;;
34282;SDS011;20542;49.828;8.746;2022-08-19T09:31:20;7.38;;;3.40;;
34282;SDS011;20542;49.828;8.746;2022-08-19T09:33:48;4.47;;;3.47;;
34282;SDS011;20542;49.828;8.746;2022-08-19T09:36:16;5.07;;;3.63;;
34282;SDS011;20542;49.828;8.746;2022-08-19T09:38:44;4.80;;;3.28;;
34282;SDS011;20542;49.828;8.746;2022-08-19T09:41:11;4.63;;;3.27;;
34282;SDS011;20542;49.828;8.746;2022-08-19T09:43:40;6.78;;;3.70;;
34282;SDS011;20542;49.828;8.746;2022-08-19T09:46:09;4.47;;;3.67;;
34282;SDS011;20542;49.828;8.746;2022-08-19T09:48:35;7.93;;;4.47;;
34282;SDS011;20542;49.828;8.746;2022-08-19T09:51:02;3.83;;;3.45;;
34282;SDS011;20542;49.828;8.746;2022-08-19T09:53:33;5.63;;;3.17;;
34282;SDS011;20542;49.828;8.746;2022-08-19T09:55:59;4.38;;;3.28;;
34282;SDS011;20542;49.828;8.746;2022-08-19T09:58:25;6.50;;;3.55;;
34282;SDS011;20542;49.828;8.746;2022-08-19T10:00:53;6.30;;;3.28;;
34282;SDS011;20542;49.828;8.746;2022-08-19T10:05:45;4.67;;;3.40;;
34282;SDS011;20542;49.828;8.746;2022-08-19T10:08:18;5.40;;;3.25;;
34282;SDS011;20542;49.828;8.746;2022-08-19T10:10:46;8.98;;;3.67;;
34282;SDS011;20542;49.828;8.746;2022-08-19T10:13:13;5.35;;;3.50;;
34282;SDS011;20542;49.828;8.746;2022-08-19T10:15:41;5.32;;;3.83;;
34282;SDS011;20542;49.828;8.746;2022-08-19T10:18:07;9.80;;;3.50;;
34282;SDS011;20542;49.828;8.746;2022-08-19T10:20:33;5.40;;;3.33;;
34282;SDS011;20542;49.828;8.746;2022-08-19T10:23:00;5.30;;;3.42;;
34282;SDS011;20542;49.828;8.746;2022-08-19T10:25:27;4.63;;;3.33;;
34282;SDS011;20542;49.828;8.746;2022-08-19T10:27:53;4.15;;;3.72;;
34282;SDS011;20542;49.828;8.746;2022-08-19T10:30:19;5.57;;;4.07;;
34282;SDS011;20542;49.828;8.746;2022-08-19T10:32:44;5.25;;;3.17;;
34282;SDS011;20542;49.828;8.746;2022-08-19T10:35:10;4.93;;;3.83;;
34282;SDS011;20542;49.828;8.746;2022-08-19T10:37:37;6.50;;;4.57;;
34282;SDS011;20542;49.828;8.746;2022-08-19T10:40:07;7.57;;;4.65;;
34282;SDS011;20542;49.828;8.746;2022-08-19T10:42:36;5.53;;;3.80;;
34282;SDS011;20542;49.828;8.746;2022-08-19T10:45:02;6.88;;;4.15;;
34282;SDS011;20542;49.828;8.746;2022-08-19T10:47:30;8.13;;;4.28;;
34282;SDS011;20542;49.828;8.746;2022-08-19T10:49:56;5.87;;;3.67;;
34282;SDS011;20542;49.828;8.746;2022-08-19T10:52:41;5.22;;;3.78;;
34282;SDS011;20542;49.828;8.746;2022-08-19T10:55:08;3.95;;;3.55;;
34282;SDS011;20542;49.828;8.746;2022-08-19T10:57:53;6.32;;;3.80;;
34282;SDS011;20542;49.828;8.746;2022-08-19T11:00:19;4.97;;;4.25;;
34282;SDS011;20542;49.828;8.746;2022-08-19T11:02:46;9.00;;;4.30;;
34282;SDS011;20542;49.828;8.746;2022-08-19T11:05:12;7.35;;;4.95;;
34282;SDS011;20542;49.828;8.746;2022-08-19T11:07:39;6.40;;;5.13;;
34282;SDS011;20542;49.828;8.746;2022-08-19T11:10:06;6.80;;;4.93;;
34282;SDS011;20542;49.828;8.746;2022-08-19T11:12:33;6.57;;;4.65;;
34282;SDS011;20542;49.828;8.746;2022-08-19T11:15:01;6.00;;;4.47;;
34282;SDS011;20542;49.828;8.746;2022-08-19T11:17:26;6.07;;;4.40;;
34282;SDS011;20542;49.828;8.746;2022-08-19T11:19:52;5.88;;;4.53;;
34282;SDS011;20542;49.828;8.746;2022-08-19T11:22:18;7.97;;;4.28;;
34282;SDS011;20542;49.828;8.746;2022-08-19T11:24:43;5.60;;;4.55;;
34282;SDS011;20542;49.828;8.746;2022-08-19T11:27:09;7.15;;;5.50;;
34282;SDS011;20542;49.828;8.746;2022-08-19T11:29:37;4.80;;;4.30;;
34282;SDS011;20542;49.828;8.746;2022-08-19T11:32:04;5.72;;;4.78;;
34282;SDS011;20542;49.828;8.746;2022-08-19T11:34:32;6.43;;;4.35;;
34282;SDS011;20542;49.828;8.746;2022-08-19T11:36:58;5.72;;;4.70;;
34282;SDS011;20542;49.828;8.746;2022-08-19T11:39:24;5.85;;;4.85;;
34282;SDS011;20542;49.828;8.746;2022-08-19T11:41:52;5.70;;;4.80;;
34282;SDS011;20542;49.828;8.746;2022-08-19T11:44:17;7.97;;;4.80;;
34282;SDS011;20542;49.828;8.746;2022-08-19T11:46:44;6.47;;;5.00;;
34282;SDS011;20542;49.828;8.746;2022-08-19T11:49:12;7.55;;;5.18;;
34282;SDS011;20542;49.828;8.746;2022-08-19T11:51:38;5.03;;;4.40;;
34282;SDS011;20542;49.828;8.746;2022-08-19T11:54:05;8.48;;;4.32;;
34282;SDS011;20542;49.828;8.746;2022-08-19T11:56:31;7.13;;;4.57;;
34282;SDS011;20542;49.828;8.746;2022-08-19T11:58:57;5.10;;;4.03;;
34282;SDS011;20542;49.828;8.746;2022-08-19T12:01:23;5.57;;;4.57;;
34282;SDS011;20542;49.828;8.746;2022-08-19T12:03:51;5.70;;;3.95;;
34282;SDS011;20542;49.828;8.746;2022-08-19T12:06:20;5.00;;;4.10;;
34282;SDS011;20542;49.828;8.746;2022-08-19T12:08:52;5.32;;;4.35;;
34282;SDS011;20542;49.828;8.746;2022-08-19T12:11:18;7.00;;;4.80;;
34282;SDS011;20542;49.828;8.746;2022-08-19T12:13:44;11.13;;;4.90;;
34282;SDS011;20542;49.828;8.746;2022-08-19T12:16:12;6.07;;;4.43;;
34282;SDS011;20542;49.828;8.746;2022-08-19T12:18:42;6.35;;;4.82;;
34282;SDS011;20542;49.828;8.746;2022-08-19T12:21:11;7.15;;;5.22;;
34282;SDS011;20542;49.828;8.746;2022-08-19T12:23:39;6.88;;;4.78;;
34282;SDS011;20542;49.828;8.746;2022-08-19T12:26:05;7.00;;;5.80;;
34282;SDS011;20542;49.828;8.746;2022-08-19T12:28:31;6.78;;;5.30;;
34282;SDS011;20542;49.828;8.746;2022-08-19T12:30:56;8.10;;;5.55;;
34282;SDS011;20542;49.828;8.746;2022-08-19T12:33:22;6.90;;;5.87;;
34282;SDS011;20542;49.828;8.746;2022-08-19T12:35:51;7.85;;;5.78;;
34282;SDS011;20542;49.828;8.746;2022-08-19T12:38:17;7.40;;;5.90;;
34282;SDS011;20542;49.828;8.746;2022-08-19T12:40:46;9.75;;;6.57;;
34282;SDS011;20542;49.828;8.746;2022-08-19T12:43:13;10.93;;;6.85;;
34282;SDS011;20542;49.828;8.746;2022-08-19T12:45:40;8.68;;;6.97;;
34282;SDS011;20542;49.828;8.746;2022-08-19T12:48:07;9.38;;;6.13;;
34282;SDS011;20542;49.828;8.746;2022-08-19T12:50:33;7.32;;;5.80;;
34282;SDS011;20542;49.828;8.746;2022-08-19T12:52:59;7.77;;;5.93;;
34282;SDS011;20542;49.828;8.746;2022-08-19T12:55:25;7.67;;;6.50;;
34282;SDS011;20542;49.828;8.746;2022-08-19T12:57:53;8.60;;;7.07;;
34282;SDS011;20542;49.828;8.746;2022-08-19T13:00:19;8.43;;;6.55;;
34282;SDS011;20542;49.828;8.746;2022-08-19T13:02:46;8.18;;;5.80;;
34282;SDS011;20542;49.828;8.746;2022-08-19T13:05:17;7.63;;;6.03;;
34282;SDS011;20542;49.828;8.746;2022-08-19T13:07:45;6.45;;;5.40;;
34282;SDS011;20542;49.828;8.746;2022-08-19T13:10:12;10.55;;;6.10;;
34282;SDS011;20542;49.828;8.746;2022-08-19T13:12:42;6.95;;;5.68;;
34282;SDS011;20542;49.828;8.746;2022-08-19T13:15:10;11.00;;;6.10;;
34282;SDS011;20542;49.828;8.746;2022-08-19T13:17:38;5.95;;;4.43;;
34282;SDS011;20542;49.828;8.746;2022-08-19T13:20:05;5.80;;;4.43;;
34282;SDS011;20542;49.828;8.746;2022-08-19T13:22:33;12.85;;;4.53;;
34282;SDS011;20542;49.828;8.746;2022-08-19T13:25:00;5.60;;;3.90;;
34282;SDS011;20542;49.828;8.746;2022-08-19T13:27:26;6.82;;;4.32;;
34282;SDS011;20542;49.828;8.746;2022-08-19T13:29:51;5.22;;;4.47;;
34282;SDS011;20542;49.828;8.746;2022-08-19T13:32:35;6.97;;;3.45;;
34282;SDS011;20542;49.828;8.746;2022-08-19T13:35:19;4.63;;;3.75;;
34282;SDS011;20542;49.828;8.746;2022-08-19T13:37:45;5.63;;;3.50;;
34282;SDS011;20542;49.828;8.746;2022-08-19T13:40:14;3.63;;;3.27;;
34282;SDS011;20542;49.828;8.746;2022-08-19T13:42:44;7.38;;;4.78;;
34282;SDS011;20542;49.828;8.746;2022-08-19T13:45:11;10.05;;;5.85;;
34282;SDS011;20542;49.828;8.746;2022-08-19T13:47:39;4.55;;;3.90;;
34282;SDS011;20542;49.828;8.746;2022-08-19T13:50:08;2.88;;;2.67;;
34282;SDS011;20542;49.828;8.746;2022-08-19T13:52:38;3.97;;;3.58;;
34282;SDS011;20542;49.828;8.746;2022-08-19T13:55:04;4.07;;;3.67;;
34282;SDS011;20542;49.828;8.746;2022-08-19T13:57:31;4.53;;;3.55;;
34282;SDS011;20542;49.828;8.746;2022-08-19T13:59:57;4.80;;;3.47;;
34282;SDS011;20542;49.828;8.746;2022-08-19T14:02:24;2.90;;;2.65;;
34282;SDS011;20542;49.828;8.746;2022-08-19T14:04:51;2.97;;;2.65;;
34282;SDS011;20542;49.828;8.746;2022-08-19T14:07:16;3.27;;;2.97;;
34282;SDS011;20542;49.828;8.746;2022-08-19T14:09:42;4.00;;;2.90;;
34282;SDS011;20542;49.828;8.746;2022-08-19T14:12:07;3.90;;;2.93;;
34282;SDS011;20542;49.828;8.746;2022-08-19T14:14:37;3.70;;;3.13;;
34282;SDS011;20542;49.828;8.746;2022-08-19T14:17:05;3.42;;;2.55;;
34282;SDS011;20542;49.828;8.746;2022-08-19T14:19:31;4.50;;;2.97;;
34282;SDS011;20542;49.828;8.746;2022-08-19T14:21:57;3.33;;;3.03;;
34282;SDS011;20542;49.828;8.746;2022-08-19T14:24:22;6.93;;;3.30;;
34282;SDS011;20542;49.828;8.746;2022-08-19T14:26:48;2.90;;;2.60;;
34282;SDS011;20542;49.828;8.746;2022-08-19T14:29:14;3.10;;;2.73;;
34282;SDS011;20542;49.828;8.746;2022-08-19T14:31:39;3.77;;;2.83;;
34282;SDS011;20542;49.828;8.746;2022-08-19T14:34:05;2.97;;;2.53;;
34282;SDS011;20542;49.828;8.746;2022-08-19T14:36:31;2.88;;;2.50;;
34282;SDS011;20542;49.828;8.746;2022-08-19T14:38:59;6.22;;;3.05;;
34282;SDS011;20542;49.828;8.746;2022-08-19T14:41:25;3.80;;;2.42;;
34282;SDS011;20542;49.828;8.746;2022-08-19T14:43:52;2.83;;;2.42;;
34282;SDS011;20542;49.828;8.746;2022-08-19T14:46:22;2.78;;;2.42;;
34282;SDS011;20542;49.828;8.746;2022-08-19T14:48:50;2.90;;;2.20;;
34282;SDS011;20542;49.828;8.746;2022-08-19T14:51:16;2.87;;;2.30;;
34282;SDS011;20542;49.828;8.746;2022-08-19T14:53:42;4.32;;;2.65;;
34282;SDS011;20542;49.828;8.746;2022-08-19T14:56:12;4.03;;;2.20;;
34282;SDS011;20542;49.828;8.746;2022-08-19T14:58:39;2.67;;;2.38;;
34282;SDS011;20542;49.828;8.746;2022-08-19T15:01:09;2.20;;;2.00;;